sensor_id;sensor_type;location;lat;lon;timestamp;temperature;humidity
21338;DHT22;10827;50.878;4.382;2022-09-03T00:01:09;22.90;99.90
21338;DHT22;10827;50.878;4.382;2022-09-03T00:03:46;23.00;99.90
21338;DHT22;10827;50.878;4.382;2022-09-03T00:06:16;23.00;99.90
21338;DHT22;10827;50.878;4.382;2022-09-03T00:11:57;23.40;1.00
21338;DHT22;10827;50.878;4.382;2022-09-03T00:14:45;23.50;1.00
21338;DHT22;10827;50.878;4.382;2022-09-03T00:17:39;23.50;1.00
21338;DHT22;10827;50.878;4.382;2022-09-03T00:20:27;23.10;1.00
21338;DHT22;10827;50.878;4.382;2022-09-03T00:22:57;23.10;1.00
21338;DHT22;10827;50.878;4.382;2022-09-03T00:25:35;22.80;1.00
21338;DHT22;10827;50.878;4.382;2022-09-03T00:28:06;22.90;1.00
21338;DHT22;10827;50.878;4.382;2022-09-03T00:30:37;23.10;1.00
21338;DHT22;10827;50.878;4.382;2022-09-03T00:33:17;23.20;1.00
21338;DHT22;10827;50.878;4.382;2022-09-03T00:36:17;23.40;1.00
21338;DHT22;10827;50.878;4.382;2022-09-03T00:38:40;23.40;1.00
21338;DHT22;10827;50.878;4.382;2022-09-03T00:47:12;22.70;1.00
21338;DHT22;10827;50.878;4.382;2022-09-03T00:52:57;22.60;1.00
21338;DHT22;10827;50.878;4.382;2022-09-03T00:58:49;23.00;1.00
21338;DHT22;10827;50.878;4.382;2022-09-03T01:01:24;22.70;1.00
21338;DHT22;10827;50.878;4.382;2022-09-03T01:04:49;22.70;99.90
21338;DHT22;10827;50.878;4.382;2022-09-03T01:07:21;23.10;99.90
21338;DHT22;10827;50.878;4.382;2022-09-03T01:12:49;22.80;1.00
21338;DHT22;10827;50.878;4.382;2022-09-03T01:29:22;23.40;1.00
21338;DHT22;10827;50.878;4.382;2022-09-03T01:38:08;23.20;94.70
21338;DHT22;10827;50.878;4.382;2022-09-03T01:43:55;23.10;1.00
21338;DHT22;10827;50.878;4.382;2022-09-03T01:46:40;23.10;1.00
21338;DHT22;10827;50.878;4.382;2022-09-03T01:52:39;22.70;1.00
21338;DHT22;10827;50.878;4.382;2022-09-03T01:57:49;23.30;1.00
21338;DHT22;10827;50.878;4.382;2022-09-03T02:00:20;23.10;1.00
21338;DHT22;10827;50.878;4.382;2022-09-03T02:02:48;23.00;99.90
21338;DHT22;10827;50.878;4.382;2022-09-03T02:05:27;23.10;99.90
21338;DHT22;10827;50.878;4.382;2022-09-03T02:08:00;23.30;81.80
21338;DHT22;10827;50.878;4.382;2022-09-03T02:13:03;23.10;99.90
21338;DHT22;10827;50.878;4.382;2022-09-03T02:15:30;23.10;1.00
21338;DHT22;10827;50.878;4.382;2022-09-03T02:18:00;22.90;1.00
21338;DHT22;10827;50.878;4.382;2022-09-03T02:20:27;22.80;99.90
21338;DHT22;10827;50.878;4.382;2022-09-03T02:22:55;22.80;1.00
21338;DHT22;10827;50.878;4.382;2022-09-03T02:25:26;22.90;99.90
21338;DHT22;10827;50.878;4.382;2022-09-03T02:27:53;23.20;1.00
21338;DHT22;10827;50.878;4.382;2022-09-03T02:30:19;23.00;9.60
21338;DHT22;10827;50.878;4.382;2022-09-03T02:32:46;23.00;1.00
21338;DHT22;10827;50.878;4.382;2022-09-03T02:35:12;22.70;1.00
21338;DHT22;10827;50.878;4.382;2022-09-03T02:37:38;22.70;99.90
21338;DHT22;10827;50.878;4.382;2022-09-03T02:40:04;22.90;1.00
21338;DHT22;10827;50.878;4.382;2022-09-03T02:42:35;23.20;1.00
21338;DHT22;10827;50.878;4.382;2022-09-03T02:45:13;23.00;1.00
21338;DHT22;10827;50.878;4.382;2022-09-03T02:47:43;22.80;99.90
21338;DHT22;10827;50.878;4.382;2022-09-03T02:50:09;22.40;1.00
21338;DHT22;10827;50.878;4.382;2022-09-03T02:52:35;22.50;1.00
21338;DHT22;10827;50.878;4.382;2022-09-03T02:55:00;22.40;1.00
21338;DHT22;10827;50.878;4.382;2022-09-03T02:57:26;22.20;1.00
21338;DHT22;10827;50.878;4.382;2022-09-03T03:02:19;22.40;1.00
21338;DHT22;10827;50.878;4.382;2022-09-03T03:04:44;22.00;99.90
21338;DHT22;10827;50.878;4.382;2022-09-03T03:07:10;22.00;99.90
21338;DHT22;10827;50.878;4.382;2022-09-03T03:09:36;22.40;99.90
21338;DHT22;10827;50.878;4.382;2022-09-03T03:12:02;22.30;99.90
21338;DHT22;10827;50.878;4.382;2022-09-03T03:14:27;22.30;99.90
21338;DHT22;10827;50.878;4.382;2022-09-03T03:16:53;22.50;99.90
21338;DHT22;10827;50.878;4.382;2022-09-03T03:19:19;22.80;99.90
21338;DHT22;10827;50.878;4.382;2022-09-03T03:21:44;22.80;99.90
21338;DHT22;10827;50.878;4.382;2022-09-03T03:24:10;22.50;99.90
21338;DHT22;10827;50.878;4.382;2022-09-03T03:26:36;22.40;99.90
21338;DHT22;10827;50.878;4.382;2022-09-03T03:29:03;22.40;1.00
21338;DHT22;10827;50.878;4.382;2022-09-03T03:31:30;22.30;99.90
21338;DHT22;10827;50.878;4.382;2022-09-03T03:34:00;22.00;1.00
21338;DHT22;10827;50.878;4.382;2022-09-03T03:36:29;21.90;1.00
21338;DHT22;10827;50.878;4.382;2022-09-03T03:38:57;21.60;1.00
21338;DHT22;10827;50.878;4.382;2022-09-03T03:41:26;21.60;1.00
21338;DHT22;10827;50.878;4.382;2022-09-03T03:43:54;22.20;1.00
21338;DHT22;10827;50.878;4.382;2022-09-03T03:46:22;22.30;1.00
21338;DHT22;10827;50.878;4.382;2022-09-03T03:48:48;22.10;1.00
21338;DHT22;10827;50.878;4.382;2022-09-03T03:51:14;22.00;1.00
21338;DHT22;10827;50.878;4.382;2022-09-03T03:53:41;22.30;1.00
21338;DHT22;10827;50.878;4.382;2022-09-03T03:56:09;22.60;99.90
21338;DHT22;10827;50.878;4.382;2022-09-03T03:58:36;22.50;99.90
21338;DHT22;10827;50.878;4.382;2022-09-03T04:01:08;22.10;99.90
21338;DHT22;10827;50.878;4.382;2022-09-03T04:03:35;22.60;1.00
21338;DHT22;10827;50.878;4.382;2022-09-03T04:06:01;22.50;1.00
21338;DHT22;10827;50.878;4.382;2022-09-03T04:08:29;22.20;1.00
21338;DHT22;10827;50.878;4.382;2022-09-03T04:11:01;22.10;1.00
21338;DHT22;10827;50.878;4.382;2022-09-03T04:13:35;21.60;1.00
21338;DHT22;10827;50.878;4.382;2022-09-03T04:16:08;21.70;1.00
21338;DHT22;10827;50.878;4.382;2022-09-03T04:18:35;21.60;1.00
21338;DHT22;10827;50.878;4.382;2022-09-03T04:21:06;21.50;1.00
21338;DHT22;10827;50.878;4.382;2022-09-03T04:23:34;21.60;1.00
21338;DHT22;10827;50.878;4.382;2022-09-03T04:26:00;21.50;1.00
21338;DHT22;10827;50.878;4.382;2022-09-03T04:28:26;21.60;1.00
21338;DHT22;10827;50.878;4.382;2022-09-03T04:30:52;21.40;6.30
21338;DHT22;10827;50.878;4.382;2022-09-03T04:33:18;21.40;1.00
21338;DHT22;10827;50.878;4.382;2022-09-03T04:35:44;20.80;20.80
21338;DHT22;10827;50.878;4.382;2022-09-03T04:38:10;21.00;1.00
21338;DHT22;10827;50.878;4.382;2022-09-03T04:40:36;21.10;1.00
21338;DHT22;10827;50.878;4.382;2022-09-03T04:43:02;21.20;1.00
21338;DHT22;10827;50.878;4.382;2022-09-03T04:47:59;20.60;3.40
21338;DHT22;10827;50.878;4.382;2022-09-03T04:50:26;20.70;1.40
21338;DHT22;10827;50.878;4.382;2022-09-03T04:52:58;20.60;1.00
21338;DHT22;10827;50.878;4.382;2022-09-03T04:55:25;20.90;1.00
21338;DHT22;10827;50.878;4.382;2022-09-03T04:57:50;20.60;21.50
21338;DHT22;10827;50.878;4.382;2022-09-03T05:00:16;20.70;42.50
21338;DHT22;10827;50.878;4.382;2022-09-03T05:02:46;20.80;24.20
21338;DHT22;10827;50.878;4.382;2022-09-03T05:05:14;20.90;48.00
21338;DHT22;10827;50.878;4.382;2022-09-03T05:07:40;20.70;59.80
21338;DHT22;10827;50.878;4.382;2022-09-03T05:10:10;20.40;79.20
21338;DHT22;10827;50.878;4.382;2022-09-03T05:12:57;20.40;83.80
21338;DHT22;10827;50.878;4.382;2022-09-03T05:15:23;20.30;83.70
21338;DHT22;10827;50.878;4.382;2022-09-03T05:17:48;20.70;76.00
21338;DHT22;10827;50.878;4.382;2022-09-03T05:20:17;20.80;79.60
21338;DHT22;10827;50.878;4.382;2022-09-03T05:22:46;20.90;67.50
21338;DHT22;10827;50.878;4.382;2022-09-03T05:25:12;20.90;77.30
21338;DHT22;10827;50.878;4.382;2022-09-03T05:27:38;20.70;87.50
21338;DHT22;10827;50.878;4.382;2022-09-03T05:30:04;20.70;90.90
21338;DHT22;10827;50.878;4.382;2022-09-03T05:32:31;20.60;94.60
21338;DHT22;10827;50.878;4.382;2022-09-03T05:34:57;20.20;93.90
21338;DHT22;10827;50.878;4.382;2022-09-03T05:37:23;20.80;98.20
21338;DHT22;10827;50.878;4.382;2022-09-03T05:39:48;20.40;99.90
21338;DHT22;10827;50.878;4.382;2022-09-03T05:42:14;20.40;99.90
21338;DHT22;10827;50.878;4.382;2022-09-03T05:44:40;20.50;96.60
21338;DHT22;10827;50.878;4.382;2022-09-03T05:47:05;20.40;96.40
21338;DHT22;10827;50.878;4.382;2022-09-03T05:49:31;20.80;96.10
21338;DHT22;10827;50.878;4.382;2022-09-03T05:51:57;20.60;99.20
21338;DHT22;10827;50.878;4.382;2022-09-03T05:54:23;20.90;98.70
21338;DHT22;10827;50.878;4.382;2022-09-03T05:56:49;20.60;98.70
21338;DHT22;10827;50.878;4.382;2022-09-03T05:59:15;20.70;92.60
21338;DHT22;10827;50.878;4.382;2022-09-03T06:01:43;20.90;96.50
21338;DHT22;10827;50.878;4.382;2022-09-03T06:04:12;20.80;96.20
21338;DHT22;10827;50.878;4.382;2022-09-03T06:06:40;21.00;92.30
21338;DHT22;10827;50.878;4.382;2022-09-03T06:09:09;21.00;81.40
21338;DHT22;10827;50.878;4.382;2022-09-03T06:11:36;21.10;94.30
21338;DHT22;10827;50.878;4.382;2022-09-03T06:14:05;20.70;96.30
21338;DHT22;10827;50.878;4.382;2022-09-03T06:16:34;21.00;89.40
21338;DHT22;10827;50.878;4.382;2022-09-03T06:19:01;21.10;91.80
21338;DHT22;10827;50.878;4.382;2022-09-03T06:21:27;21.30;99.80
21338;DHT22;10827;50.878;4.382;2022-09-03T06:23:55;21.10;99.90
21338;DHT22;10827;50.878;4.382;2022-09-03T06:26:24;21.10;92.30
21338;DHT22;10827;50.878;4.382;2022-09-03T06:28:50;21.00;77.90
21338;DHT22;10827;50.878;4.382;2022-09-03T06:31:19;21.20;82.10
21338;DHT22;10827;50.878;4.382;2022-09-03T06:33:46;21.10;66.30
21338;DHT22;10827;50.878;4.382;2022-09-03T06:36:14;21.50;66.00
21338;DHT22;10827;50.878;4.382;2022-09-03T06:38:41;21.50;68.40
21338;DHT22;10827;50.878;4.382;2022-09-03T06:41:13;21.30;70.80
21338;DHT22;10827;50.878;4.382;2022-09-03T06:43:40;21.30;60.80
21338;DHT22;10827;50.878;4.382;2022-09-03T06:46:09;21.10;49.10
21338;DHT22;10827;50.878;4.382;2022-09-03T06:48:36;21.10;3.00
21338;DHT22;10827;50.878;4.382;2022-09-03T06:51:04;21.40;7.40
21338;DHT22;10827;50.878;4.382;2022-09-03T06:53:35;21.40;11.60
21338;DHT22;10827;50.878;4.382;2022-09-03T06:56:05;21.60;11.70
21338;DHT22;10827;50.878;4.382;2022-09-03T06:58:36;21.60;6.50
21338;DHT22;10827;50.878;4.382;2022-09-03T07:01:04;21.60;1.00
21338;DHT22;10827;50.878;4.382;2022-09-03T07:03:33;21.40;1.00
21338;DHT22;10827;50.878;4.382;2022-09-03T07:06:25;21.40;1.00
21338;DHT22;10827;50.878;4.382;2022-09-03T07:08:52;21.20;1.00
21338;DHT22;10827;50.878;4.382;2022-09-03T07:11:20;21.60;1.00
21338;DHT22;10827;50.878;4.382;2022-09-03T07:13:50;21.30;1.00
21338;DHT22;10827;50.878;4.382;2022-09-03T07:16:22;21.40;1.00
21338;DHT22;10827;50.878;4.382;2022-09-03T07:18:48;21.40;1.00
21338;DHT22;10827;50.878;4.382;2022-09-03T07:21:25;21.60;1.00
21338;DHT22;10827;50.878;4.382;2022-09-03T07:23:52;22.10;1.00
21338;DHT22;10827;50.878;4.382;2022-09-03T07:26:23;21.60;1.00
21338;DHT22;10827;50.878;4.382;2022-09-03T07:28:49;21.80;1.00
21338;DHT22;10827;50.878;4.382;2022-09-03T07:31:18;21.60;1.00
21338;DHT22;10827;50.878;4.382;2022-09-03T07:33:45;21.70;1.00
21338;DHT22;10827;50.878;4.382;2022-09-03T07:36:13;21.40;1.00
21338;DHT22;10827;50.878;4.382;2022-09-03T07:38:40;21.50;1.00
21338;DHT22;10827;50.878;4.382;2022-09-03T07:41:08;21.60;1.00
21338;DHT22;10827;50.878;4.382;2022-09-03T07:43:36;22.20;1.00
21338;DHT22;10827;50.878;4.382;2022-09-03T07:46:09;21.80;1.00
21338;DHT22;10827;50.878;4.382;2022-09-03T07:48:41;21.90;1.00
21338;DHT22;10827;50.878;4.382;2022-09-03T07:51:08;21.80;1.00
21338;DHT22;10827;50.878;4.382;2022-09-03T07:53:34;22.10;1.00
21338;DHT22;10827;50.878;4.382;2022-09-03T07:56:01;21.60;1.00
21338;DHT22;10827;50.878;4.382;2022-09-03T07:58:29;22.10;1.00
21338;DHT22;10827;50.878;4.382;2022-09-03T08:00:55;22.00;1.00
21338;DHT22;10827;50.878;4.382;2022-09-03T08:03:21;22.50;1.00
21338;DHT22;10827;50.878;4.382;2022-09-03T08:05:47;22.50;1.00
21338;DHT22;10827;50.878;4.382;2022-09-03T08:08:13;22.10;1.00
21338;DHT22;10827;50.878;4.382;2022-09-03T08:10:40;22.00;1.00
21338;DHT22;10827;50.878;4.382;2022-09-03T08:13:06;22.20;1.00
21338;DHT22;10827;50.878;4.382;2022-09-03T08:15:33;22.20;1.00
21338;DHT22;10827;50.878;4.382;2022-09-03T08:17:59;22.00;1.00
21338;DHT22;10827;50.878;4.382;2022-09-03T08:20:26;22.00;1.00
21338;DHT22;10827;50.878;4.382;2022-09-03T08:22:52;22.00;1.00
21338;DHT22;10827;50.878;4.382;2022-09-03T08:25:24;22.20;1.00
21338;DHT22;10827;50.878;4.382;2022-09-03T08:27:50;22.20;1.00
21338;DHT22;10827;50.878;4.382;2022-09-03T08:30:16;22.40;1.00
21338;DHT22;10827;50.878;4.382;2022-09-03T08:32:42;22.40;1.00
21338;DHT22;10827;50.878;4.382;2022-09-03T08:35:08;22.80;1.00
21338;DHT22;10827;50.878;4.382;2022-09-03T08:37:34;22.40;1.00
21338;DHT22;10827;50.878;4.382;2022-09-03T08:40:00;22.20;1.00
21338;DHT22;10827;50.878;4.382;2022-09-03T08:45:14;22.60;1.00
21338;DHT22;10827;50.878;4.382;2022-09-03T08:48:06;22.50;1.00
21338;DHT22;10827;50.878;4.382;2022-09-03T08:50:55;22.50;1.00
21338;DHT22;10827;50.878;4.382;2022-09-03T08:53:29;22.60;1.00
21338;DHT22;10827;50.878;4.382;2022-09-03T08:56:10;22.80;1.00
21338;DHT22;10827;50.878;4.382;2022-09-03T08:58:37;23.00;1.00
21338;DHT22;10827;50.878;4.382;2022-09-03T09:09:45;23.30;1.00
21338;DHT22;10827;50.878;4.382;2022-09-03T09:15:12;23.40;1.00
21338;DHT22;10827;50.878;4.382;2022-09-03T09:22:56;22.90;1.00
21338;DHT22;10827;50.878;4.382;2022-09-03T09:25:25;23.00;1.00
21338;DHT22;10827;50.878;4.382;2022-09-03T09:27:59;23.20;1.00
21338;DHT22;10827;50.878;4.382;2022-09-03T09:30:25;23.20;1.00
21338;DHT22;10827;50.878;4.382;2022-09-03T09:32:51;23.10;1.00
21338;DHT22;10827;50.878;4.382;2022-09-03T09:35:18;23.50;1.00
21338;DHT22;10827;50.878;4.382;2022-09-03T09:37:51;23.30;1.00
21338;DHT22;10827;50.878;4.382;2022-09-03T09:40:27;23.40;1.00
21338;DHT22;10827;50.878;4.382;2022-09-03T09:43:10;23.00;1.00
21338;DHT22;10827;50.878;4.382;2022-09-03T09:45:38;23.20;1.00
21338;DHT22;10827;50.878;4.382;2022-09-03T09:48:12;23.20;1.00
21338;DHT22;10827;50.878;4.382;2022-09-03T09:50:40;23.20;1.00
21338;DHT22;10827;50.878;4.382;2022-09-03T09:53:10;23.10;1.00
21338;DHT22;10827;50.878;4.382;2022-09-03T09:55:56;23.10;1.00
21338;DHT22;10827;50.878;4.382;2022-09-03T09:58:28;23.20;1.00
21338;DHT22;10827;50.878;4.382;2022-09-03T10:01:21;23.20;1.00
21338;DHT22;10827;50.878;4.382;2022-09-03T10:03:58;23.70;1.00
21338;DHT22;10827;50.878;4.382;2022-09-03T10:06:26;24.10;1.00
21338;DHT22;10827;50.878;4.382;2022-09-03T10:09:14;24.00;1.00
21338;DHT22;10827;50.878;4.382;2022-09-03T10:11:45;24.60;1.00
21338;DHT22;10827;50.878;4.382;2022-09-03T10:14:27;24.50;1.00
21338;DHT22;10827;50.878;4.382;2022-09-03T10:17:17;24.50;1.00
21338;DHT22;10827;50.878;4.382;2022-09-03T10:20:10;24.40;1.00
21338;DHT22;10827;50.878;4.382;2022-09-03T10:23:25;24.60;1.00
21338;DHT22;10827;50.878;4.382;2022-09-03T10:26:10;24.60;1.00
21338;DHT22;10827;50.878;4.382;2022-09-03T10:28:38;24.80;1.00
21338;DHT22;10827;50.878;4.382;2022-09-03T10:36:53;25.10;1.00
21338;DHT22;10827;50.878;4.382;2022-09-03T10:47:47;24.80;1.00
21338;DHT22;10827;50.878;4.382;2022-09-03T10:50:22;24.60;1.00
21338;DHT22;10827;50.878;4.382;2022-09-03T10:55:56;24.70;1.00
21338;DHT22;10827;50.878;4.382;2022-09-03T11:07:16;24.90;1.00
21338;DHT22;10827;50.878;4.382;2022-09-03T11:10:27;25.00;1.00
21338;DHT22;10827;50.878;4.382;2022-09-03T11:12:56;25.10;1.00
21338;DHT22;10827;50.878;4.382;2022-09-03T11:16:06;25.10;1.00
21338;DHT22;10827;50.878;4.382;2022-09-03T11:18:47;25.40;1.00
21338;DHT22;10827;50.878;4.382;2022-09-03T11:21:15;25.20;1.00
21338;DHT22;10827;50.878;4.382;2022-09-03T11:26:28;25.30;1.00
21338;DHT22;10827;50.878;4.382;2022-09-03T11:29:29;25.30;1.00
21338;DHT22;10827;50.878;4.382;2022-09-03T11:32:08;25.50;1.00
21338;DHT22;10827;50.878;4.382;2022-09-03T11:34:53;25.50;1.00
21338;DHT22;10827;50.878;4.382;2022-09-03T11:37:26;25.90;99.90
21338;DHT22;10827;50.878;4.382;2022-09-03T11:39:58;25.80;99.90
21338;DHT22;10827;50.878;4.382;2022-09-03T11:42:35;25.80;99.90
21338;DHT22;10827;50.878;4.382;2022-09-03T11:45:33;25.50;1.00
21338;DHT22;10827;50.878;4.382;2022-09-03T11:47:59;25.50;1.00
21338;DHT22;10827;50.878;4.382;2022-09-03T11:50:28;25.30;99.90
21338;DHT22;10827;50.878;4.382;2022-09-03T11:53:10;25.50;99.90
21338;DHT22;10827;50.878;4.382;2022-09-03T11:58:36;24.90;99.90
21338;DHT22;10827;50.878;4.382;2022-09-03T12:01:10;25.00;1.00
21338;DHT22;10827;50.878;4.382;2022-09-03T12:03:57;25.10;99.90
21338;DHT22;10827;50.878;4.382;2022-09-03T12:12:25;24.90;99.90
21338;DHT22;10827;50.878;4.382;2022-09-03T12:15:16;25.10;1.00
21338;DHT22;10827;50.878;4.382;2022-09-03T12:18:00;25.00;1.00
21338;DHT22;10827;50.878;4.382;2022-09-03T12:21:05;25.50;1.00
21338;DHT22;10827;50.878;4.382;2022-09-03T12:23:49;25.70;99.90
21338;DHT22;10827;50.878;4.382;2022-09-03T12:26:20;25.90;99.90
21338;DHT22;10827;50.878;4.382;2022-09-03T12:28:53;26.00;1.00
21338;DHT22;10827;50.878;4.382;2022-09-03T12:31:23;26.00;1.00
21338;DHT22;10827;50.878;4.382;2022-09-03T12:34:09;25.90;1.00
21338;DHT22;10827;50.878;4.382;2022-09-03T12:39:20;26.00;1.00
21338;DHT22;10827;50.878;4.382;2022-09-03T12:42:08;26.20;1.00
21338;DHT22;10827;50.878;4.382;2022-09-03T12:47:06;26.60;99.90
21338;DHT22;10827;50.878;4.382;2022-09-03T12:57:26;27.00;1.00
21338;DHT22;10827;50.878;4.382;2022-09-03T12:59:56;27.50;1.00
21338;DHT22;10827;50.878;4.382;2022-09-03T13:02:31;28.10;99.90
21338;DHT22;10827;50.878;4.382;2022-09-03T13:05:00;28.00;27.70
21338;DHT22;10827;50.878;4.382;2022-09-03T13:07:33;27.20;1.00
21338;DHT22;10827;50.878;4.382;2022-09-03T13:10:07;27.30;99.90
21338;DHT22;10827;50.878;4.382;2022-09-03T13:12:44;27.60;1.00
21338;DHT22;10827;50.878;4.382;2022-09-03T13:15:19;27.50;1.00
21338;DHT22;10827;50.878;4.382;2022-09-03T13:18:09;27.80;1.00
21338;DHT22;10827;50.878;4.382;2022-09-03T13:21:06;27.50;1.00
21338;DHT22;10827;50.878;4.382;2022-09-03T13:23:56;27.50;99.90
21338;DHT22;10827;50.878;4.382;2022-09-03T13:31:37;26.30;49.60
21338;DHT22;10827;50.878;4.382;2022-09-03T13:34:16;26.40;99.90
21338;DHT22;10827;50.878;4.382;2022-09-03T13:36:53;26.40;1.00
21338;DHT22;10827;50.878;4.382;2022-09-03T13:39:23;26.50;1.00
21338;DHT22;10827;50.878;4.382;2022-09-03T13:42:17;26.90;1.00
21338;DHT22;10827;50.878;4.382;2022-09-03T13:44:51;27.70;99.90
21338;DHT22;10827;50.878;4.382;2022-09-03T13:50:07;28.00;1.00
21338;DHT22;10827;50.878;4.382;2022-09-03T13:55:27;26.90;1.00
21338;DHT22;10827;50.878;4.382;2022-09-03T14:00:53;27.30;1.00
21338;DHT22;10827;50.878;4.382;2022-09-03T14:03:31;27.20;1.00
21338;DHT22;10827;50.878;4.382;2022-09-03T14:11:37;27.60;99.90
21338;DHT22;10827;50.878;4.382;2022-09-03T14:16:41;27.60;1.00
21338;DHT22;10827;50.878;4.382;2022-09-03T14:19:19;26.80;1.00
21338;DHT22;10827;50.878;4.382;2022-09-03T14:21:57;26.80;1.00
21338;DHT22;10827;50.878;4.382;2022-09-03T14:24:30;27.40;99.90
21338;DHT22;10827;50.878;4.382;2022-09-03T14:27:04;27.60;1.00
21338;DHT22;10827;50.878;4.382;2022-09-03T14:29:31;27.60;1.00
21338;DHT22;10827;50.878;4.382;2022-09-03T14:34:59;27.40;99.90
21338;DHT22;10827;50.878;4.382;2022-09-03T14:37:47;27.40;99.90
21338;DHT22;10827;50.878;4.382;2022-09-03T14:57:41;27.90;1.00
21338;DHT22;10827;50.878;4.382;2022-09-03T15:03:11;27.60;99.90
21338;DHT22;10827;50.878;4.382;2022-09-03T15:11:21;27.00;99.90
21338;DHT22;10827;50.878;4.382;2022-09-03T15:14:09;26.90;1.00
21338;DHT22;10827;50.878;4.382;2022-09-03T15:16:51;27.00;1.00
21338;DHT22;10827;50.878;4.382;2022-09-03T15:24:42;27.20;1.00
21338;DHT22;10827;50.878;4.382;2022-09-03T15:27:31;27.30;1.00
21338;DHT22;10827;50.878;4.382;2022-09-03T15:30:09;27.80;99.90
21338;DHT22;10827;50.878;4.382;2022-09-03T15:41:04;28.10;1.00
21338;DHT22;10827;50.878;4.382;2022-09-03T15:43:34;27.80;1.00
21338;DHT22;10827;50.878;4.382;2022-09-03T15:46:10;27.90;99.90
21338;DHT22;10827;50.878;4.382;2022-09-03T15:51:32;27.70;1.00
21338;DHT22;10827;50.878;4.382;2022-09-03T15:54:09;27.60;1.00
21338;DHT22;10827;50.878;4.382;2022-09-03T15:59:29;26.90;5.90
21338;DHT22;10827;50.878;4.382;2022-09-03T16:01:58;26.90;99.90
21338;DHT22;10827;50.878;4.382;2022-09-03T16:13:10;28.80;1.00
21338;DHT22;10827;50.878;4.382;2022-09-03T16:18:36;30.60;1.00
21338;DHT22;10827;50.878;4.382;2022-09-03T16:21:12;30.90;1.00
21338;DHT22;10827;50.878;4.382;2022-09-03T16:23:48;30.90;1.00
21338;DHT22;10827;50.878;4.382;2022-09-03T16:26:26;31.70;99.90
21338;DHT22;10827;50.878;4.382;2022-09-03T16:29:02;31.60;99.40
21338;DHT22;10827;50.878;4.382;2022-09-03T16:37:43;31.00;9.50
21338;DHT22;10827;50.878;4.382;2022-09-03T16:50:55;30.70;1.00
21338;DHT22;10827;50.878;4.382;2022-09-03T16:58:53;29.60;99.90
21338;DHT22;10827;50.878;4.382;2022-09-03T17:10:05;29.60;99.90
21338;DHT22;10827;50.878;4.382;2022-09-03T17:12:37;29.30;1.00
21338;DHT22;10827;50.878;4.382;2022-09-03T17:15:28;28.90;1.00
21338;DHT22;10827;50.878;4.382;2022-09-03T17:18:10;28.20;99.90
21338;DHT22;10827;50.878;4.382;2022-09-03T17:20:56;27.80;1.00
21338;DHT22;10827;50.878;4.382;2022-09-03T17:23:57;27.80;1.00
21338;DHT22;10827;50.878;4.382;2022-09-03T17:29:39;28.10;1.00
21338;DHT22;10827;50.878;4.382;2022-09-03T17:32:35;27.00;1.00
21338;DHT22;10827;50.878;4.382;2022-09-03T17:40:26;26.40;99.90
21338;DHT22;10827;50.878;4.382;2022-09-03T17:43:08;26.40;1.00
21338;DHT22;10827;50.878;4.382;2022-09-03T17:48:35;26.00;1.00
21338;DHT22;10827;50.878;4.382;2022-09-03T17:51:16;26.20;1.00
21338;DHT22;10827;50.878;4.382;2022-09-03T17:56:25;26.10;1.00
21338;DHT22;10827;50.878;4.382;2022-09-03T17:59:09;26.00;1.00
21338;DHT22;10827;50.878;4.382;2022-09-03T18:01:39;25.90;1.00
21338;DHT22;10827;50.878;4.382;2022-09-03T18:04:27;25.80;1.00
21338;DHT22;10827;50.878;4.382;2022-09-03T18:06:58;26.40;1.00
21338;DHT22;10827;50.878;4.382;2022-09-03T18:15:14;26.50;1.00
21338;DHT22;10827;50.878;4.382;2022-09-03T18:20:13;26.20;1.00
21338;DHT22;10827;50.878;4.382;2022-09-03T18:26:10;26.00;11.60
21338;DHT22;10827;50.878;4.382;2022-09-03T18:28:58;25.60;99.90
21338;DHT22;10827;50.878;4.382;2022-09-03T18:31:43;26.00;99.90
21338;DHT22;10827;50.878;4.382;2022-09-03T18:34:31;25.70;99.90
21338;DHT22;10827;50.878;4.382;2022-09-03T18:37:21;25.90;99.90
21338;DHT22;10827;50.878;4.382;2022-09-03T18:40:08;25.80;99.90
21338;DHT22;10827;50.878;4.382;2022-09-03T18:49:47;25.30;1.00
21338;DHT22;10827;50.878;4.382;2022-09-03T19:01:30;24.70;1.00
21338;DHT22;10827;50.878;4.382;2022-09-03T19:10:56;24.70;1.00
21338;DHT22;10827;50.878;4.382;2022-09-03T19:13:44;24.30;1.00
21338;DHT22;10827;50.878;4.382;2022-09-03T19:22:38;24.40;1.00
21338;DHT22;10827;50.878;4.382;2022-09-03T19:25:24;24.20;1.00
21338;DHT22;10827;50.878;4.382;2022-09-03T19:34:45;24.80;1.00
21338;DHT22;10827;50.878;4.382;2022-09-03T19:37:39;24.70;1.00
21338;DHT22;10827;50.878;4.382;2022-09-03T19:40:51;24.70;1.00
21338;DHT22;10827;50.878;4.382;2022-09-03T19:46:58;24.50;1.00
21338;DHT22;10827;50.878;4.382;2022-09-03T19:52:50;24.70;1.00
21338;DHT22;10827;50.878;4.382;2022-09-03T19:55:39;25.10;1.00
21338;DHT22;10827;50.878;4.382;2022-09-03T19:58:28;24.60;1.00
21338;DHT22;10827;50.878;4.382;2022-09-03T20:01:13;24.60;1.00
21338;DHT22;10827;50.878;4.382;2022-09-03T20:04:02;24.20;1.00
21338;DHT22;10827;50.878;4.382;2022-09-03T20:06:49;24.10;1.00
21338;DHT22;10827;50.878;4.382;2022-09-03T20:09:37;24.20;1.00
21338;DHT22;10827;50.878;4.382;2022-09-03T20:12:24;24.80;1.00
21338;DHT22;10827;50.878;4.382;2022-09-03T20:14:52;24.30;1.00
21338;DHT22;10827;50.878;4.382;2022-09-03T20:28:00;24.00;1.00
21338;DHT22;10827;50.878;4.382;2022-09-03T20:30:44;23.90;1.00
21338;DHT22;10827;50.878;4.382;2022-09-03T20:42:22;23.40;1.00
21338;DHT22;10827;50.878;4.382;2022-09-03T20:55:19;23.10;1.00
21338;DHT22;10827;50.878;4.382;2022-09-03T21:00:25;23.30;1.00
21338;DHT22;10827;50.878;4.382;2022-09-03T21:05:52;23.70;1.00
21338;DHT22;10827;50.878;4.382;2022-09-03T21:11:18;23.70;1.00
21338;DHT22;10827;50.878;4.382;2022-09-03T21:25:38;23.50;1.00
21338;DHT22;10827;50.878;4.382;2022-09-03T21:28:40;23.60;1.00
21338;DHT22;10827;50.878;4.382;2022-09-03T21:31:18;23.50;1.00
21338;DHT22;10827;50.878;4.382;2022-09-03T21:33:47;23.30;1.00
21338;DHT22;10827;50.878;4.382;2022-09-03T21:36:27;23.00;1.00
21338;DHT22;10827;50.878;4.382;2022-09-03T21:39:22;23.30;1.00
21338;DHT22;10827;50.878;4.382;2022-09-03T21:45:32;23.60;1.00
21338;DHT22;10827;50.878;4.382;2022-09-03T21:47:38;23.40;1.00
21338;DHT22;10827;50.878;4.382;2022-09-03T21:50:20;23.30;1.00
21338;DHT22;10827;50.878;4.382;2022-09-03T21:55:35;23.20;1.00
21338;DHT22;10827;50.878;4.382;2022-09-03T21:58:45;22.80;1.00
21338;DHT22;10827;50.878;4.382;2022-09-03T22:01:21;23.20;1.00
21338;DHT22;10827;50.878;4.382;2022-09-03T22:03:51;23.10;1.00
21338;DHT22;10827;50.878;4.382;2022-09-03T22:06:37;22.80;1.00
21338;DHT22;10827;50.878;4.382;2022-09-03T22:14:42;22.40;1.00
21338;DHT22;10827;50.878;4.382;2022-09-03T22:17:21;22.20;1.00
21338;DHT22;10827;50.878;4.382;2022-09-03T22:19:50;22.80;1.00
21338;DHT22;10827;50.878;4.382;2022-09-03T22:22:31;22.90;1.00
21338;DHT22;10827;50.878;4.382;2022-09-03T22:25:27;23.20;1.00
21338;DHT22;10827;50.878;4.382;2022-09-03T22:28:24;23.50;1.00
21338;DHT22;10827;50.878;4.382;2022-09-03T22:33:48;23.20;1.00
21338;DHT22;10827;50.878;4.382;2022-09-03T22:36:26;22.80;1.00